createdAt,value
2023-04-26T00:00:11.852Z,23.67
2023-04-26T00:02:59.650Z,26.27
2023-04-26T00:05:34.950Z,24.35
2023-04-26T00:08:21.553Z,23.27
2023-04-26T00:10:54.621Z,22.23
2023-04-26T00:13:41.536Z,21.85
2023-04-26T00:16:15.002Z,25.67
2023-04-26T00:19:01.546Z,22.30
2023-04-26T00:21:41.527Z,23.98
2023-04-26T00:24:35.567Z,26.85
2023-04-26T00:27:22.567Z,23.20
2023-04-26T00:29:55.913Z,25.70
2023-04-26T00:32:43.584Z,23.40
2023-04-26T00:35:16.630Z,26.65
2023-04-26T00:38:03.558Z,24.15
2023-04-26T00:40:37.682Z,25.42
2023-04-26T00:43:24.529Z,22.60
2023-04-26T00:45:58.702Z,19.83
2023-04-26T00:48:45.541Z,21.13
2023-04-26T00:51:19.649Z,24.80
2023-04-26T00:54:06.568Z,22.23
2023-04-26T00:56:40.821Z,21.85
2023-04-26T00:59:27.566Z,21.42
2023-04-26T01:02:00.813Z,23.00
2023-04-26T01:04:48.577Z,20.40
2023-04-26T01:07:40.670Z,20.75
2023-04-26T01:10:27.575Z,20.60
2023-04-26T01:13:01.681Z,17.40
2023-04-26T01:15:58.568Z,19.38
2023-04-26T01:18:38.564Z,21.25
2023-04-26T01:21:39.575Z,20.02
2023-04-26T01:24:33.569Z,23.20
2023-04-26T01:27:20.564Z,20.25
2023-04-26T01:29:54.072Z,18.73
2023-04-26T01:32:41.591Z,18.40
2023-04-26T01:35:15.671Z,29.92
2023-04-26T01:38:02.562Z,19.38
2023-04-26T01:40:36.303Z,19.33
2023-04-26T01:43:24.576Z,20.15
2023-04-26T01:46:04.685Z,20.52
2023-04-26T01:48:51.770Z,19.20
2023-04-26T01:51:24.749Z,20.38
2023-04-26T01:54:11.550Z,20.52
2023-04-26T01:56:44.744Z,24.35
2023-04-26T01:59:31.587Z,21.45
2023-04-26T02:02:11.682Z,23.45
2023-04-26T02:04:58.604Z,23.60
2023-04-26T02:07:31.660Z,20.08
2023-04-26T02:10:18.582Z,20.58
2023-04-26T02:12:58.578Z,21.08
2023-04-26T02:15:52.612Z,19.70
2023-04-26T02:18:39.595Z,19.20
2023-04-26T02:21:14.668Z,20.02
2023-04-26T02:24:01.604Z,17.52
2023-04-26T02:26:34.701Z,19.33
2023-04-26T02:29:35.947Z,21.17
2023-04-26T02:32:20.624Z,18.92
2023-04-26T02:35:14.611Z,19.60
2023-04-26T02:38:01.592Z,18.27
2023-04-26T02:40:41.601Z,19.98
2023-04-26T02:43:28.600Z,19.98
2023-04-26T02:46:08.616Z,19.05
2023-04-26T02:48:55.614Z,18.20
2023-04-26T02:51:28.698Z,18.33
2023-04-26T02:54:15.586Z,18.88
2023-04-26T02:56:48.696Z,18.67
2023-04-26T02:59:35.609Z,18.60
2023-04-26T03:02:08.781Z,19.58
2023-04-26T03:04:55.585Z,17.33
2023-04-26T03:07:35.599Z,17.05
2023-04-26T03:10:22.600Z,18.52
2023-04-26T03:13:02.599Z,18.92
2023-04-26T03:15:53.596Z,19.27
2023-04-26T03:18:33.732Z,18.38
2023-04-26T03:21:27.599Z,24.15
2023-04-26T03:24:14.611Z,18.13
2023-04-26T03:26:47.711Z,17.35
2023-04-26T03:29:34.620Z,18.40
2023-04-26T03:32:14.673Z,16.88
2023-04-26T03:35:01.625Z,17.13
2023-04-26T03:37:41.613Z,16.90
2023-04-26T03:40:35.586Z,21.88
2023-04-26T03:43:31.945Z,16.90
2023-04-26T03:46:18.651Z,16.27
2023-04-26T03:48:52.092Z,17.25
2023-04-26T03:51:38.628Z,16.48
2023-04-26T03:54:18.626Z,15.75
2023-04-26T03:57:05.615Z,21.23
2023-04-26T03:59:45.638Z,14.30
2023-04-26T04:02:39.733Z,14.77
2023-04-26T04:05:26.659Z,14.77
2023-04-26T04:07:59.722Z,15.05
2023-04-26T04:10:46.615Z,16.00
2023-04-26T04:13:19.744Z,13.70
2023-04-26T04:16:06.650Z,18.05
2023-04-26T04:18:39.744Z,20.40
2023-04-26T04:21:26.617Z,14.48
2023-04-26T04:23:59.778Z,14.70
2023-04-26T04:26:46.657Z,17.42
2023-04-26T04:29:27.678Z,14.80
2023-04-26T04:32:14.643Z,14.15
2023-04-26T04:34:54.617Z,14.07
2023-04-26T04:37:41.647Z,14.48
2023-04-26T04:40:22.656Z,11.88
2023-04-26T04:43:16.635Z,14.15
2023-04-26T04:46:12.485Z,19.95
2023-04-26T04:48:59.646Z,13.25
2023-04-26T04:51:32.743Z,13.15
2023-04-26T04:54:21.640Z,13.98
2023-04-26T04:57:01.636Z,13.40
2023-04-26T04:59:55.646Z,13.85
2023-04-26T05:02:50.763Z,15.68
2023-04-26T05:05:44.672Z,18.02
2023-04-26T05:08:31.632Z,14.00
2023-04-26T05:11:04.867Z,14.52
2023-04-26T05:13:52.962Z,17.88
2023-04-26T05:16:26.762Z,13.63
2023-04-26T05:19:13.653Z,16.70
2023-04-26T05:21:46.802Z,14.25
2023-04-26T05:24:36.684Z,12.98
2023-04-26T05:27:09.747Z,13.48
2023-04-26T05:29:56.653Z,14.30
2023-04-26T05:32:30.171Z,17.52
2023-04-26T05:35:16.668Z,14.88
2023-04-26T05:37:49.769Z,18.17
2023-04-26T05:40:36.682Z,14.27
2023-04-26T05:43:17.655Z,17.25
2023-04-26T05:46:04.706Z,12.98
2023-04-26T05:48:37.766Z,17.77
2023-04-26T05:51:24.670Z,22.05
2023-04-26T05:54:04.673Z,15.98
2023-04-26T05:56:51.676Z,15.32
2023-04-26T05:59:24.781Z,20.52
2023-04-26T06:02:11.832Z,19.63
2023-04-26T06:04:45.026Z,15.70
2023-04-26T06:07:31.670Z,16.92
2023-04-26T06:10:05.244Z,14.40
2023-04-26T06:12:51.672Z,15.73
2023-04-26T06:15:24.785Z,15.90
2023-04-26T06:18:12.796Z,16.08
2023-04-26T06:20:45.813Z,16.33
2023-04-26T06:23:32.690Z,21.95
2023-04-26T06:26:12.686Z,14.38
2023-04-26T06:29:06.653Z,15.38
2023-04-26T06:31:53.669Z,15.75
2023-04-26T06:34:27.202Z,16.25
2023-04-26T06:37:13.727Z,16.98
2023-04-26T06:39:46.771Z,13.88
2023-04-26T06:42:33.686Z,14.02
2023-04-26T06:45:13.695Z,12.43
2023-04-26T06:48:07.754Z,16.45
2023-04-26T06:50:54.684Z,12.68
2023-04-26T06:53:27.778Z,13.88
2023-04-26T06:56:14.827Z,13.82
2023-04-26T06:59:05.822Z,13.82
2023-04-26T07:01:52.740Z,15.77
2023-04-26T07:04:25.938Z,13.98
2023-04-26T07:07:13.625Z,19.92
2023-04-26T07:09:53.721Z,11.75
2023-04-26T07:12:47.707Z,12.68
2023-04-26T07:15:34.723Z,11.45
2023-04-26T07:18:08.111Z,11.48
2023-04-26T07:20:54.701Z,14.43
2023-04-26T07:23:27.802Z,14.43
2023-04-26T07:26:17.704Z,11.90
2023-04-26T07:28:50.805Z,18.40
2023-04-26T07:31:38.717Z,13.77
2023-04-26T07:34:11.858Z,11.85
2023-04-26T07:36:58.734Z,13.00
2023-04-26T07:39:38.709Z,12.40
2023-04-26T07:42:32.724Z,12.50
2023-04-26T07:45:26.755Z,11.18
2023-04-26T07:48:13.788Z,11.48
2023-04-26T07:50:46.817Z,12.18
2023-04-26T07:53:33.690Z,15.13
2023-04-26T07:56:09.865Z,12.88
2023-04-26T07:58:56.733Z,13.13
2023-04-26T08:01:36.722Z,14.02
2023-04-26T08:04:31.862Z,12.70
2023-04-26T08:07:18.743Z,14.93
2023-04-26T08:09:51.975Z,15.45
2023-04-26T08:12:39.744Z,14.32
2023-04-26T08:15:13.937Z,14.85
2023-04-26T08:18:00.732Z,12.52
2023-04-26T08:20:33.917Z,13.48
2023-04-26T08:23:20.740Z,16.15
2023-04-26T08:26:00.755Z,13.70
2023-04-26T08:28:47.733Z,11.00
2023-04-26T08:31:22.987Z,15.50
2023-04-26T08:34:09.793Z,12.82
2023-04-26T08:36:43.845Z,13.30
2023-04-26T08:39:30.761Z,12.77
2023-04-26T08:42:17.741Z,13.27
2023-04-26T08:45:14.738Z,13.20
2023-04-26T08:48:10.813Z,13.35
2023-04-26T08:50:46.722Z,13.10
2023-04-26T08:53:34.754Z,13.40
2023-04-26T08:56:08.840Z,16.08
2023-04-26T08:58:55.745Z,14.77
2023-04-26T09:01:38.729Z,12.02
2023-04-26T09:04:25.877Z,14.18
2023-04-26T09:06:59.848Z,12.00
2023-04-26T09:09:53.753Z,11.57
2023-04-26T09:12:27.198Z,12.02
2023-04-26T09:15:14.767Z,12.07
2023-04-26T09:17:55.853Z,12.43
2023-04-26T09:20:42.762Z,13.27
2023-04-26T09:23:17.274Z,12.73
2023-04-26T09:26:03.790Z,12.18
2023-04-26T09:28:37.447Z,11.52
2023-04-26T09:31:47.029Z,12.10
2023-04-26T09:34:21.863Z,11.13
2023-04-26T09:37:08.766Z,11.38
2023-04-26T09:39:45.458Z,12.07
2023-04-26T09:42:31.764Z,11.93
2023-04-26T09:45:19.784Z,10.50
2023-04-26T09:48:37.781Z,11.82
2023-04-26T09:51:24.845Z,12.40
2023-04-26T09:54:04.776Z,17.45
2023-04-26T09:57:12.756Z,11.45
2023-04-26T10:00:01.831Z,13.10
2023-04-26T10:02:34.896Z,13.23
2023-04-26T10:05:21.771Z,14.35
2023-04-26T10:07:57.081Z,12.32
2023-04-26T10:10:44.812Z,13.52
2023-04-26T10:13:24.778Z,10.98
2023-04-26T10:16:12.808Z,12.60
2023-04-26T10:18:52.916Z,12.73
2023-04-26T10:21:45.784Z,11.70
2023-04-26T10:24:18.880Z,17.35
2023-04-26T10:27:05.778Z,12.63
2023-04-26T10:30:01.008Z,12.65
2023-04-26T10:32:59.848Z,11.20
2023-04-26T10:35:44.763Z,11.45
2023-04-26T10:38:31.845Z,11.90
2023-04-26T10:41:37.078Z,12.98
2023-04-26T10:44:52.797Z,12.38
2023-04-26T10:47:34.045Z,10.23
2023-04-26T10:50:20.800Z,10.27
2023-04-26T10:53:13.925Z,10.60
2023-04-26T10:56:00.788Z,11.32
2023-04-26T10:58:36.018Z,11.07
2023-04-26T11:01:27.857Z,11.82
2023-04-26T11:04:03.988Z,10.95
2023-04-26T11:07:09.798Z,11.77
2023-04-26T11:09:42.922Z,12.38
2023-04-26T11:12:29.801Z,13.27
2023-04-26T11:15:07.286Z,11.07
2023-04-26T11:17:53.861Z,10.63
2023-04-26T11:20:26.902Z,11.88
2023-04-26T11:23:15.820Z,10.27
2023-04-26T11:25:48.968Z,11.45
2023-04-26T11:28:36.818Z,12.48
2023-04-26T11:31:13.847Z,11.75
2023-04-26T11:34:00.804Z,13.73
2023-04-26T11:36:40.830Z,11.45
2023-04-26T11:39:34.812Z,12.48
2023-04-26T11:42:28.817Z,12.07
2023-04-26T11:45:22.820Z,11.70
2023-04-26T11:48:14.871Z,12.32
2023-04-26T11:50:47.904Z,11.82
2023-04-26T11:53:47.816Z,12.35
2023-04-26T11:56:29.827Z,11.60
2023-04-26T11:59:17.820Z,12.75
2023-04-26T12:01:58.009Z,20.45
2023-04-26T12:04:48.211Z,11.75
2023-04-26T12:07:24.907Z,12.48
2023-04-26T12:10:22.829Z,13.68
2023-04-26T12:12:58.046Z,11.60
2023-04-26T12:15:45.879Z,12.18
2023-04-26T12:18:19.021Z,11.82
2023-04-26T12:21:06.843Z,11.50
2023-04-26T12:23:49.838Z,13.82
2023-04-26T12:26:51.854Z,11.40
2023-04-26T12:29:25.047Z,12.45
2023-04-26T12:32:11.865Z,12.23
2023-04-26T12:34:44.945Z,13.02
2023-04-26T12:37:31.843Z,11.75
2023-04-26T12:40:12.857Z,12.30
2023-04-26T12:43:06.841Z,14.60
2023-04-26T12:45:53.878Z,13.23
2023-04-26T12:48:26.984Z,13.55
2023-04-26T12:51:13.845Z,13.75
2023-04-26T12:53:53.855Z,12.90
2023-04-26T12:56:40.873Z,11.80
2023-04-26T12:59:14.047Z,13.00
2023-04-26T13:02:00.928Z,11.68
2023-04-26T13:04:41.852Z,12.85
2023-04-26T13:07:35.866Z,14.23
2023-04-26T13:10:22.871Z,13.40
2023-04-26T13:12:57.864Z,11.30
2023-04-26T13:15:44.901Z,12.25
2023-04-26T13:18:24.903Z,13.68
2023-04-26T13:21:11.888Z,12.30
2023-04-26T13:23:46.299Z,13.40
2023-04-26T13:26:32.866Z,12.93
2023-04-26T13:29:06.031Z,13.38
2023-04-26T13:31:52.957Z,12.60
2023-04-26T13:34:26.039Z,11.93
2023-04-26T13:37:12.855Z,11.70
2023-04-26T13:39:52.884Z,11.57
2023-04-26T13:42:46.846Z,12.07
2023-04-26T13:45:40.876Z,12.07
2023-04-26T13:48:27.873Z,11.55
2023-04-26T13:51:00.945Z,13.43
2023-04-26T13:53:47.892Z,12.15
2023-04-26T13:56:20.963Z,11.20
2023-04-26T13:59:09.873Z,12.30
2023-04-26T14:01:50.778Z,13.57
2023-04-26T14:04:40.009Z,12.93
2023-04-26T14:07:20.899Z,11.20
2023-04-26T14:10:07.986Z,15.23
2023-04-26T14:12:41.426Z,12.43
2023-04-26T14:15:27.876Z,12.15
2023-04-26T14:18:01.088Z,12.35
2023-04-26T14:20:48.130Z,12.20
2023-04-26T14:23:21.147Z,11.20
2023-04-26T14:26:07.893Z,10.55
2023-04-26T14:28:47.901Z,14.07
2023-04-26T14:31:36.919Z,14.43
2023-04-26T14:34:10.064Z,12.63
2023-04-26T14:36:56.868Z,10.13
2023-04-26T14:39:36.888Z,10.80
2023-04-26T14:42:30.885Z,12.05
2023-04-26T14:45:23.656Z,14.88
2023-04-26T14:48:01.811Z,10.93
2023-04-26T14:50:48.910Z,15.95
2023-04-26T14:53:21.998Z,11.55
2023-04-26T14:56:11.757Z,11.13
2023-04-26T14:58:45.093Z,10.38
2023-04-26T15:01:31.980Z,13.05
2023-04-26T15:04:12.112Z,11.02
2023-04-26T15:06:58.920Z,11.55
2023-04-26T15:09:32.267Z,10.93
2023-04-26T15:12:18.921Z,13.00
2023-04-26T15:14:51.997Z,12.23
2023-04-26T15:17:39.950Z,14.73
2023-04-26T15:20:13.005Z,12.05
2023-04-26T15:22:59.965Z,12.00
2023-04-26T15:25:33.035Z,13.90
2023-04-26T15:28:19.898Z,13.10
2023-04-26T15:30:53.049Z,12.50
2023-04-26T15:33:39.899Z,12.63
2023-04-26T15:36:21.013Z,11.40
2023-04-26T15:39:07.951Z,12.75
2023-04-26T15:41:41.093Z,12.82
2023-04-26T15:44:27.926Z,15.23
2023-04-26T15:47:07.899Z,12.93
2023-04-26T15:50:01.948Z,12.55
2023-04-26T15:52:55.901Z,14.13
2023-04-26T15:55:42.944Z,11.65
2023-04-26T15:58:16.103Z,12.05
2023-04-26T16:01:02.982Z,12.18
2023-04-26T16:03:36.225Z,12.30
2023-04-26T16:06:22.925Z,14.63
2023-04-26T16:09:04.703Z,11.73
2023-04-26T16:11:54.924Z,11.32
2023-04-26T16:14:28.186Z,11.23
2023-04-26T16:17:14.931Z,13.15
2023-04-26T16:19:48.561Z,13.20
2023-04-26T16:22:34.938Z,12.80
2023-04-26T16:25:10.024Z,16.60
2023-04-26T16:27:56.914Z,11.63
2023-04-26T16:30:36.938Z,14.23
2023-04-26T16:33:30.934Z,12.52
2023-04-26T16:36:17.930Z,11.25
2023-04-26T16:38:51.024Z,12.98
2023-04-26T16:41:44.950Z,13.13
2023-04-26T16:44:38.952Z,12.65
2023-04-26T16:47:25.922Z,14.77
2023-04-26T16:49:59.082Z,17.55
2023-04-26T16:52:45.947Z,15.85
2023-04-26T16:55:19.053Z,14.77
2023-04-26T16:58:05.935Z,15.15
2023-04-26T17:00:39.080Z,17.25
2023-04-26T17:03:26.279Z,27.92
2023-04-26T17:06:00.201Z,29.65
2023-04-26T17:08:46.956Z,15.20
2023-04-26T17:11:30.930Z,16.75
2023-04-26T17:14:17.953Z,13.80
2023-04-26T17:16:51.205Z,14.05
2023-04-26T17:19:37.940Z,15.60
2023-04-26T17:22:11.360Z,13.18
2023-04-26T17:24:57.951Z,15.93
2023-04-26T17:27:37.971Z,14.38
2023-04-26T17:30:25.989Z,13.98
2023-04-26T17:32:59.110Z,15.90
2023-04-26T17:35:45.973Z,12.82
2023-04-26T17:38:25.956Z,17.15
2023-04-26T17:41:19.988Z,16.58
2023-04-26T17:44:13.947Z,17.65
2023-04-26T17:47:00.955Z,18.38
2023-04-26T17:49:40.966Z,20.08
2023-04-26T17:52:34.987Z,24.38
2023-04-26T17:55:28.980Z,19.30
2023-04-26T17:58:15.935Z,14.07
2023-04-26T18:00:49.077Z,17.50
2023-04-26T18:03:37.031Z,13.88
2023-04-26T18:06:11.067Z,14.40
2023-04-26T18:08:57.979Z,13.77
2023-04-26T18:11:31.070Z,13.80
2023-04-26T18:14:17.967Z,14.07
2023-04-26T18:16:58.018Z,12.98
2023-04-26T18:19:51.985Z,13.65
2023-04-26T18:22:38.985Z,11.90
2023-04-26T18:25:19.985Z,13.50
2023-04-26T18:28:14.987Z,12.55
2023-04-26T18:31:15.030Z,16.75
2023-04-26T18:34:01.979Z,11.80
2023-04-26T18:36:42.981Z,16.85
2023-04-26T18:39:36.975Z,13.32
2023-04-26T18:42:24.048Z,12.40
2023-04-26T18:44:57.095Z,13.20
2023-04-26T18:47:44.066Z,12.40
2023-04-26T18:50:17.082Z,12.88
2023-04-26T18:53:04.153Z,11.85
2023-04-26T18:55:37.080Z,13.20
2023-04-26T18:58:23.995Z,13.00
2023-04-26T19:00:57.375Z,12.27
2023-04-26T19:03:44.155Z,14.27
2023-04-26T19:06:18.144Z,12.63
2023-04-26T19:09:06.000Z,13.80
2023-04-26T19:11:46.008Z,13.18
2023-04-26T19:14:33.017Z,14.25
2023-04-26T19:17:06.565Z,14.20
2023-04-26T19:19:53.001Z,14.43
2023-04-26T19:22:33.023Z,15.73
2023-04-26T19:25:28.992Z,20.80
2023-04-26T19:28:15.995Z,19.83
2023-04-26T19:30:49.134Z,21.73
2023-04-26T19:33:35.999Z,24.40
2023-04-26T19:36:09.091Z,24.77
2023-04-26T19:38:56.006Z,23.95
2023-04-26T19:41:32.115Z,25.48
2023-04-26T19:44:19.018Z,25.20
2023-04-26T19:46:53.157Z,24.10
2023-04-26T19:49:41.005Z,23.30
2023-04-26T19:52:14.127Z,36.40
2023-04-26T19:55:00.993Z,69.90
2023-04-26T19:57:34.622Z,79.95
2023-04-26T20:00:22.029Z,77.03
2023-04-26T20:02:58.970Z,78.20
2023-04-26T20:05:46.026Z,40.90
2023-04-26T20:08:19.233Z,16.58
2023-04-26T20:11:12.030Z,17.88
2023-04-26T20:13:45.182Z,22.33
2023-04-26T20:16:32.116Z,17.83
2023-04-26T20:19:05.499Z,17.85
2023-04-26T20:21:52.022Z,16.25
2023-04-26T20:24:34.016Z,16.15
2023-04-26T20:27:28.028Z,14.88
2023-04-26T20:30:22.038Z,16.67
2023-04-26T20:33:09.114Z,15.35
2023-04-26T20:35:42.230Z,19.65
2023-04-26T20:38:30.030Z,17.95
2023-04-26T20:41:04.563Z,21.08
2023-04-26T20:44:11.619Z,16.52
2023-04-26T20:46:58.610Z,18.38
2023-04-26T20:49:31.726Z,15.30
2023-04-26T20:52:19.682Z,16.92
2023-04-26T20:54:52.806Z,14.63
2023-04-26T20:57:39.596Z,25.95
2023-04-26T21:00:13.739Z,16.20
2023-04-26T21:03:00.746Z,17.75
2023-04-26T21:05:33.965Z,19.17
2023-04-26T21:08:23.951Z,26.80
2023-04-26T21:11:03.630Z,20.38
2023-04-26T21:13:57.662Z,21.85
2023-04-26T21:16:44.606Z,17.35
2023-04-26T21:19:17.728Z,15.55
2023-04-26T21:22:04.627Z,15.55
2023-04-26T21:24:44.633Z,27.45
2023-04-26T21:27:31.649Z,22.25
2023-04-26T21:30:13.946Z,25.92
2023-04-26T21:33:00.667Z,17.50
2023-04-26T21:35:33.729Z,18.42
2023-04-26T21:38:20.650Z,17.70
2023-04-26T21:41:00.643Z,19.77
2023-04-26T21:43:54.668Z,23.15
2023-04-26T21:46:48.714Z,18.25
2023-04-26T21:49:35.641Z,25.38
2023-04-26T21:52:08.728Z,34.45
2023-04-26T21:54:55.628Z,26.70
2023-04-26T21:57:35.702Z,25.05
2023-04-26T22:00:29.659Z,22.65
2023-04-26T22:03:23.817Z,25.02
2023-04-26T22:06:18.694Z,18.95
2023-04-26T22:09:15.708Z,20.73
2023-04-26T22:12:09.645Z,22.48
2023-04-26T22:14:56.638Z,21.83
2023-04-26T22:17:29.964Z,21.92
2023-04-26T22:20:17.681Z,24.63
2023-04-26T22:22:57.657Z,17.98
2023-04-26T22:25:51.683Z,18.08
2023-04-26T22:28:38.641Z,18.17
2023-04-26T22:31:11.757Z,22.80
2023-04-26T22:33:58.651Z,18.30
2023-04-26T22:36:32.600Z,18.23
2023-04-26T22:39:20.658Z,16.73
2023-04-26T22:41:53.781Z,17.08
2023-04-26T22:44:40.655Z,16.45
2023-04-26T22:47:13.808Z,17.35
2023-04-26T22:50:00.690Z,21.23
2023-04-26T22:52:33.793Z,18.50
2023-04-26T22:55:20.674Z,17.48
2023-04-26T22:57:53.787Z,18.35
2023-04-26T23:00:40.641Z,18.52
2023-04-26T23:03:13.916Z,17.85
2023-04-26T23:06:00.643Z,18.70
2023-04-26T23:08:40.686Z,20.80
2023-04-26T23:11:27.716Z,16.90
2023-04-26T23:14:01.897Z,17.67
2023-04-26T23:16:48.753Z,15.90
2023-04-26T23:19:22.144Z,17.30
2023-04-26T23:22:08.682Z,16.10
2023-04-26T23:24:41.766Z,15.95
2023-04-26T23:27:28.682Z,17.15
2023-04-26T23:30:01.812Z,15.70
2023-04-26T23:32:48.694Z,16.88
2023-04-26T23:35:28.687Z,17.35
2023-04-26T23:38:22.698Z,16.55
2023-04-26T23:41:09.682Z,18.98
2023-04-26T23:43:42.775Z,16.52
2023-04-26T23:46:29.770Z,16.85
2023-04-26T23:49:02.805Z,18.35
2023-04-26T23:51:49.700Z,17.58
2023-04-26T23:54:22.850Z,17.98
2023-04-26T23:57:10.681Z,17.52
2023-04-26T23:59:50.671Z,17.88
